• Join FlightAware (Why Join?)
  • Login
  • US Flag 
11:23AM EST


 

Airport Tracker/Info


-or-


 

Live Flight TrackerFlight Track Log ✈ RPA3392 ✈ 03-Jul-2013 ✈ KMSP - KDCA

Flight Track Log - Related Links

Times and Time Zones

All times are in EDT time to prevent confusion due to time zone crossing. See the RPA3392 flight status page for this flight to view local times or setup timezone preferences in your user account.

Time Position Orientation Groundspeed Altitude Reporting Facility
EDT Latitude Longitude Course Direction KTS MPH feet Rate Location/Type
05:47PM 44.8500 -93.2167 117° Southeast 159 183 2,600  Level Minneapolis TRACON
05:48PM 44.8239 -93.1686 127° Southeast 198 228 3,300 1,800 Climbing Minneapolis Center
05:49PM 44.7861 -93.0797 121° Southeast 264 304 5,800 2,580 Climbing Minneapolis Center
05:50PM 44.7209 -92.6364 113° Southeast  Level Estimated
05:50PM 44.7539 -92.9786 114° Southeast 281 323 8,700  Level Minneapolis Center
05:51PM 44.6601 -92.5051 123° Southeast  Level FlightAware Approximate
05:51PM 44.7272 -92.8731 110° East 286 329 11,000  Level Minneapolis Center
05:52PM 44.6072 -92.3571 117° Southeast  Level FlightAware Approximate
05:52PM 44.6822 -92.7358 115° Southeast 323 372 13,700  Level Minneapolis Center
05:53PM 44.5581 -92.2223 117° Southeast  Level FlightAware Approximate
05:53PM 44.6406 -92.6208 117° Southeast 331 381 15,800  Level Minneapolis Center
05:54PM 44.5972 -92.5025 117° Southeast 341 392 17,700 1,620 Climbing Minneapolis Center
05:56PM 44.5234 -92.3366 115° Southeast  Level FlightAware Approximate
05:56PM 44.5064 -92.2564 115° Southeast 353 406 21,000  Level Minneapolis Center
05:57PM 44.4594 -92.1286 117° Southeast 361 415 22,500 1,500 Climbing Minneapolis Center
05:58PM 44.4008 -91.9717 118° Southeast 372 428 24,100 1,440 Climbing Minneapolis Center
05:59PM 44.3511 -91.8375 117° Southeast 382 440 25,500 1,200 Climbing Minneapolis Center
06:00PM 44.3003 -91.7008 117° Southeast 394 453 26,700 1,140 Climbing Minneapolis Center
06:01PM 44.2481 -91.5622 118° Southeast 401 461 27,900 1,200 Climbing Minneapolis Center
06:03PM 44.1950 -91.4203 117° Southeast 410 472 29,300 1,320 Climbing Minneapolis Center
06:04PM 44.1322 -91.2522 117° Southeast 418 481 30,700 1,140 Climbing Minneapolis Center
06:05PM 44.0764 -91.1069 118° Southeast 425 489 31,700 1,080 Climbing Minneapolis Center
06:06PM 44.0211 -90.9614 118° Southeast 429 494 33,000 1,080 Climbing Minneapolis Center
06:07PM 43.9658 -90.8172 118° Southeast 427 491 34,000 960 Climbing Minneapolis Center
06:08PM 43.9106 -90.6758 118° Southeast 421 484 35,000 480 Climbing Minneapolis Center
06:09PM 43.8522 -90.4869 113° Southeast 439 505 35,000  Level Minneapolis Center
06:10PM 43.8175 -90.3236 106° East 442 509 35,000  Level Minneapolis Center
06:11PM 43.7806 -90.1611 107° East 444 511 35,000  Level Minneapolis Center
06:12PM 43.7447 -89.9981 107° East 443 510 35,000  Level Minneapolis Center
06:13PM 43.7078 -89.8361 107° East 443 510 35,000  Level Minneapolis Center
06:14PM 43.6714 -89.6733 107° East 442 509 35,000  Level Minneapolis Center
06:15PM 43.6283 -89.4831 107° East 445 512 35,000  Level Minneapolis Center
06:16PM 43.5906 -89.3211 108° East 445 512 35,000  Level Minneapolis Center
06:17PM 43.5536 -89.1606 108° East 440 506 35,000  Level Minneapolis Center
06:18PM 43.5158 -89.0028 108° East 436 502 35,000  Level Minneapolis Center
06:19PM 43.4783 -88.8425 108° East 438 504 35,000  Level Minneapolis Center
06:20PM 43.4336 -88.6578 108° East 440 506 35,000  Level Minneapolis Center
06:21PM 43.3931 -88.4878 108° East 443 510 35,000  Level Minneapolis Center
06:22PM 43.3569 -88.3422 109° East 447 514 35,000  Level Minneapolis Center
06:24PM 43.3000 -88.1025 108° East 444 511 35,000  Level Chicago Center
06:25PM 43.2544 -87.9136 108° East 447 514 35,000  Level Chicago Center
06:26PM 43.2144 -87.7503 109° East 450 518 35,000  Level Chicago Center
06:27PM 43.1739 -87.5906 109° East 447 514 35,000  Level Chicago Center
06:28PM 43.1344 -87.4333 109° East 440 506 35,000  Level Chicago Center
06:29PM 43.0964 -87.2753 108° East 434 499 35,000  Level Chicago Center
06:30PM 43.0567 -87.1214 109° East 433 498 35,000  Level Chicago Center
06:31PM 43.0164 -86.9675 110° East 431 496 35,000  Level Chicago Center
06:32PM 42.9683 -86.7794 109° East 437 503 35,000  Level Chicago Center
06:33PM 42.9278 -86.6250 110° East 435 501 35,000  Level Chicago Center
06:34PM 42.8872 -86.4711 110° East 436 502 35,000  Level Chicago Center
06:35PM 42.8458 -86.3192 110° East 433 498 35,000  Level Chicago Center
06:36PM 42.8064 -86.1647 109° East 438 504 35,000  Level Chicago Center
06:37PM 42.7567 -85.9794 110° East 441 507 35,000  Level Chicago Center
06:38PM 42.7164 -85.8253 110° East 440 506 35,000  Level Chicago Center
06:39PM 42.6736 -85.6703 111° Southeast 441 507 35,000  Level Chicago Center
06:40PM 42.6331 -85.5161 110° East 437 503 35,000  Level Chicago Center
06:41PM 42.5908 -85.3628 110° East 438 504 35,000  Level Chicago Center
06:42PM 42.5406 -85.1786 110° East 436 502 35,000  Level Chicago Center
06:43PM 42.4978 -85.0253 111° Southeast 437 503 35,000  Level Chicago Center
06:44PM 42.4547 -84.8739 111° Southeast 434 499 35,000  Level Chicago Center
06:45PM 42.3881 -84.7500 126° Southeast 412 474 35,000  Level Chicago Center
06:46PM 42.3200 -84.6269 127° Southeast 409 471 35,000  Level Chicago Center
06:47PM 42.2361 -84.4800 128° Southeast 413 475 35,000  Level Chicago Center
06:48PM 42.1706 -84.3742 130° Southeast 413 475 35,000  Level Cleveland Center
06:49PM 42.1014 -84.2522 127° Southeast 413 475 35,000  Level Cleveland Center
06:50PM 42.0303 -84.1308 128° Southeast 413 475 35,000  Level Cleveland Center
06:51PM 41.9589 -84.0067 128° Southeast 413 475 35,000  Level Cleveland Center
06:52PM 41.8853 -83.8856 129° Southeast 413 475 35,000  Level Cleveland Center
06:53PM 41.8158 -83.7594 126° Southeast 413 475 35,000  Level Cleveland Center
06:54PM 41.7419 -83.6361 129° Southeast 413 475 35,000  Level Cleveland Center
06:55PM 41.6703 -83.5131 128° Southeast 413 475 35,000  Level Cleveland Center
06:56PM 41.5983 -83.3878 127° Southeast 413 475 35,000  Level Cleveland Center
06:57PM 41.5242 -83.2653 129° Southeast 418 481 35,000  Level Cleveland Center
06:58PM 41.4519 -83.1403 128° Southeast 423 487 35,000  Level Cleveland Center
06:59PM 41.3775 -83.0156 128° Southeast 428 493 35,000  Level Cleveland Center
07:00PM 41.2969 -82.8772 128° Southeast 428 493 35,000  Level Cleveland Center
07:01PM 41.2200 -82.7556 130° Southeast 428 493 35,000  Level Cleveland Center
07:02PM 41.1453 -82.6347 129° Southeast 423 487 35,000  Level Cleveland Center
07:03PM 41.0703 -82.5083 128° Southeast 428 493 35,000  Level Cleveland Center
07:04PM 40.9931 -82.3822 129° Southeast 428 493 35,000  Level Cleveland Center
07:05PM 40.9200 -82.2592 128° Southeast 428 493 35,000  Level Cleveland Center
07:06PM 40.8425 -82.1339 129° Southeast 428 493 35,000  Level Cleveland Center
07:07PM 40.7650 -82.0114 130° Southeast 428 493 35,000  Level Cleveland Center
07:08PM 40.6914 -81.8892 128° Southeast 428 493 35,000  Level Cleveland Center
07:09PM 40.6133 -81.7647 130° Southeast 434 499 35,000  Level Cleveland Center
07:10PM 40.5206 -81.6675 141° Southeast 429 494 35,000  Level Cleveland Center
07:11PM 40.4275 -81.5758 143° Southeast 424 488 35,000  Level Cleveland Center
07:12PM 40.3411 -81.4656 136° Southeast 424 488 35,000  Level Cleveland Center
07:13PM 40.2731 -81.3586 130° Southeast 424 488 35,000  Level Cleveland Center
07:14PM 40.1925 -81.2436 133° Southeast 429 494 35,000  Level Cleveland Center
07:16PM 40.1187 -81.1201 128° Southeast  Level FlightAware Approximate
07:16PM 40.0561 -80.9900 128° Southeast 430 495 35,000  Level Cleveland Center
07:17PM 39.9917 -80.8514 121° Southeast 441 507 35,000  Level Cleveland Center
07:18PM 39.9294 -80.7050 119° Southeast 448 516 35,000  Level Cleveland Center
07:19PM 39.8650 -80.5642 121° Southeast 448 516 35,000  Level Cleveland Center
07:20PM 39.8003 -80.4208 120° Southeast 453 521 35,000  Level Cleveland Center
07:23PM 39.6561 -80.1092 121° Southeast 457 526 35,000  Level Washington Center
07:24PM 39.5925 -79.9706 121° Southeast 462 532 35,000 -1,080 Level Washington Center
07:25PM 39.5306 -79.8403 122° Southeast 462 532 32,900 -2,040 Descending Washington Center
07:26PM 39.4667 -79.6967 120° Southeast 462 532 31,000 -1,500 Descending Washington Center
07:27PM 39.3986 -79.5531 121° Southeast 462 532 29,900 -960 Descending Washington Center
07:28PM 39.3322 -79.4125 121° Southeast 462 532 29,100 -960 Descending Washington Center
07:29PM 39.2558 -79.2506 121° Southeast 462 532 28,100 -960 Descending Washington Center
07:30PM 39.2367 -79.1261 101° East 454 522 27,200 -1,200 Descending Washington Center
07:31PM 39.2214 -78.9378 96° East 447 514 25,700 -1,980 Descending Washington Center
07:32PM 39.2067 -78.7844 97° East 432 497 23,300 -2,460 Descending Washington Center
07:33PM 39.1917 -78.6419 98° East 420 483 20,800 -2,340 Descending Washington Center
07:34PM 39.1761 -78.5047 98° East 405 466 18,700 -1,980 Descending Washington Center
07:35PM 39.1628 -78.3703 97° East 386 444 16,900 -900 Descending Washington Center
07:36PM 39.1322 -78.2433 107° East 374 430 16,900  Level Washington Center
07:37PM 39.1017 -78.1192 108° East 368 423 16,900 -840 Level Washington Center
07:38PM 39.0686 -77.9925 109° East 368 423 15,300 -1,740 Descending Washington Center
07:39PM 39.0397 -77.8767 108° East 362 417 13,500 -1,740 Descending Washington Center
07:40PM 39.0125 -77.7689 108° East 336 387 11,900 -1,680 Descending Washington Center
07:41PM 38.9853 -77.6667 109° East 304 350 10,200 -1,680 Descending Washington Center
07:41PM 38.9667 -77.6000 110° East 293 337 9,400 -1,380 Descending Potomac TRACON
07:42PM 38.9500 -77.5000 102° East 289 333 8,100 -780 Descending Potomac TRACON
07:43PM 39.0000 -77.4333 46° Northeast 276 318 7,900 -540 Descending Potomac TRACON
07:44PM 39.0333 -77.3833 49° Northeast 228 262 7,100 -1,260 Descending Potomac TRACON
07:45PM 39.0500 -77.3000 76° East 224 258 5,400 -1,620 Descending Potomac TRACON
07:46PM 39.0167 -77.2333 123° Southeast 200 230 3,700 -1,200 Descending Potomac TRACON
07:47PM 38.9833 -77.1667 123° Southeast 197 227 3,000 -720 Descending Potomac TRACON